Flight Track Log - Related Links

Times and Time Zones

All times are in EST time to prevent confusion due to time zone crossing. See the N225SB flight status page for this flight to view local times or setup timezone preferences in your user account.

Time Position Orientation Groundspeed Altitude Reporting Facility
EST Latitude Longitude Course Direction KTS MPH feet Rate Location/Type
Fri 12:31:42 PM 42.4667 -71.3333 216° Southwest 216 249 1,600  Level KA90
Fri 12:32:00 PM 42.4500 -71.3500 216° Southwest 235 270 2,400 3,273 Climbing KA90
Fri 12:34:16 PM 42.3847 -71.5417 245° Southwest 258 297 10,000 3,031 Climbing Boston Center
Fri 12:35:16 PM 42.3703 -71.6425 259° West 273 314 12,300 2,081 Climbing Boston Center
Fri 12:36:20 PM 42.3536 -71.7647 260° West 326 375 14,300 2,160 Climbing Boston Center
Fri 12:37:21 PM 42.3286 -71.9044 256° West 356 410 16,800 2,262 Climbing Boston Center
Fri 12:38:22 PM 42.3022 -72.0331 255° West 368 423 18,900 2,033 Climbing Boston Center
Fri 12:39:22 PM 42.2758 -72.1744 256° West 366 421 20,900 1,887 Climbing Boston Center
Fri 12:40:26 PM 42.2478 -72.3083 254° West 373 429 22,800 1,872 Climbing Boston Center
Fri 12:41:27 PM 42.2206 -72.4414 255° West 371 427 24,800 1,884 Climbing Boston Center
Fri 12:42:27 PM 42.1931 -72.5711 254° West 364 419 26,600 1,785 Climbing Boston Center
Fri 12:43:28 PM 42.1664 -72.6972 254° West 354 407 28,400 1,672 Climbing Boston Center
Fri 12:44:29 PM 42.1122 -72.8050 236° Southwest 351 404 30,000 1,089 Climbing Boston Center
Fri 12:49:15 PM 41.8190 -73.2380 236° Southwest 100 115 34,700 957 Climbing FlightAware ADS-B
Fri 12:49:55 PM 41.7720 -73.2980 224° Southwest 339 390 35,200 720 Climbing FlightAware ADS-B
Fri 12:50:30 PM 41.7290 -73.3520 223° Southwest 362 417 35,600 686 Climbing FlightAware ADS-B
Fri 12:51:05 PM 41.6880 -73.4050 224° Southwest 336 387 36,000 600 Climbing FlightAware ADS-B
Fri 12:51:40 PM 41.6470 -73.4570 223° Southwest 346 398 36,300 525 Climbing FlightAware ADS-B
Fri 12:52:25 PM 41.5950 -73.5240 224° Southwest 355 409 36,700 600 Climbing FlightAware ADS-B
Fri 12:53:10 PM 41.5430 -73.5900 224° Southwest 339 390 37,200 558 Climbing FlightAware ADS-B
Fri 12:53:51 PM 41.4950 -73.6500 223° Southwest 347 399 37,500 545 Climbing FlightAware ADS-B
Fri 12:54:27 PM 41.4550 -73.7000 223° Southwest 341 392 37,900 380 Climbing FlightAware ADS-B
Fri 12:55:10 PM 41.4030 -73.7660 224° Southwest 339 390 38,000 77 Climbing FlightAware ADS-B
Fri 12:55:45 PM 41.3620 -73.8180 224° Southwest 374 430 38,000  Level FlightAware ADS-B
Fri 12:56:15 PM 41.3250 -73.8640 223° Southwest 362 417 38,000  Level FlightAware ADS-B
Fri 12:56:51 PM 41.2820 -73.9190 224° Southwest 360 414 38,000  Level FlightAware ADS-B
Fri 12:58:00 PM 41.1930 -74.0290 223° Southwest 389 448 38,000  Level FlightAware ADS-B
Fri 12:58:40 PM 41.1430 -74.0950 225° Southwest 382 440 38,000  Level FlightAware ADS-B
Fri 12:59:25 PM 41.0950 -74.1710 230° Southwest 377 434 38,000  Level FlightAware ADS-B
Fri 01:00:05 PM 41.0480 -74.2460 230° Southwest 372 428 38,000  Level FlightAware ADS-B
Fri 01:00:40 PM 41.0090 -74.3090 231° Southwest 381 438 38,000  Level FlightAware ADS-B
Fri 01:01:10 PM 40.9750 -74.3630 230° Southwest 384 442 38,000  Level FlightAware ADS-B
Fri 01:01:50 PM 40.9300 -74.4330 230° Southwest 365 420 38,000  Level FlightAware ADS-B
Fri 01:02:20 PM 40.8970 -74.4860 231° Southwest 383 441 38,000  Level FlightAware ADS-B
Fri 01:02:55 PM 40.8570 -74.5490 230° Southwest 389 448 38,000  Level FlightAware ADS-B
Fri 01:03:30 PM 40.8200 -74.6080 230° Southwest 375 432 38,000  Level FlightAware ADS-B
Fri 01:04:10 PM 40.7730 -74.6820 230° Southwest 377 434 38,000  Level FlightAware ADS-B
Fri 01:04:50 PM 40.7270 -74.7530 229° Southwest 380 437 38,000  Level FlightAware ADS-B
Fri 01:05:20 PM 40.6930 -74.8060 230° Southwest 377 434 38,000  Level FlightAware ADS-B
Fri 01:06:05 PM 40.6420 -74.8850 230° Southwest 378 435 38,000  Level FlightAware ADS-B
Fri 01:06:40 PM 40.6030 -74.9470 230° Southwest 379 436 38,000  Level FlightAware ADS-B
Fri 01:07:26 PM 40.5510 -75.0270 229° Southwest 383 441 38,000  Level FlightAware ADS-B
Fri 01:07:55 PM 40.5170 -75.0740 226° Southwest 382 440 38,000  Level FlightAware ADS-B
Fri 01:08:35 PM 40.4710 -75.1510 232° Southwest 379 436 38,000  Level FlightAware ADS-B
Fri 01:09:10 PM 40.4310 -75.2140 230° Southwest 469 540 38,000  Level FlightAware ADS-B
Fri 01:09:45 PM 40.3910 -75.2760 230° Southwest 429 494 38,000  Level FlightAware ADS-B
Fri 01:10:35 PM 40.3340 -75.3650 230° Southwest 361 415 38,000 150 Level FlightAware ADS-B
Fri 01:11:05 PM 40.3020 -75.4170 231° Southwest 383 441 38,200 369 Climbing FlightAware ADS-B
Fri 01:11:40 PM 40.2640 -75.4790 231° Southwest 369 425 38,400 480 Climbing FlightAware ADS-B
Fri 01:12:45 PM 40.1950 -75.5950 232° Southwest 351 404 39,000 540 Climbing FlightAware ADS-B
Fri 01:13:20 PM 40.1590 -75.6500 229° Southwest 348 400 39,300 554 Climbing FlightAware ADS-B
Fri 01:13:50 PM 40.1270 -75.7000 230° Southwest 359 413 39,600 554 Climbing FlightAware ADS-B
Fri 01:14:25 PM 40.0910 -75.7580 231° Southwest 343 395 39,900 257 Climbing FlightAware ADS-B
Fri 01:15:00 PM 40.0550 -75.8160 231° Southwest 361 415 39,900 92 Level FlightAware ADS-B
Fri 01:15:30 PM 40.0250 -75.8650 231° Southwest 357 411 40,000 100 Climbing FlightAware ADS-B
Fri 01:16:00 PM 39.9940 -75.9170 232° Southwest 359 413 40,000  Level FlightAware ADS-B
Fri 01:16:50 PM 39.9420 -75.9990 230° Southwest 360 414 40,000  Level FlightAware ADS-B
Fri 01:17:30 PM 39.9000 -76.0650 230° Southwest 354 407 40,000  Level FlightAware ADS-B
Fri 01:18:00 PM 39.8690 -76.1150 231° Southwest 341 392 40,000  Level FlightAware ADS-B
Fri 01:18:40 PM 39.8270 -76.1810 230° Southwest 362 417 40,000  Level FlightAware ADS-B
Fri 01:19:10 PM 39.7940 -76.2320 230° Southwest 360 414 40,000  Level FlightAware ADS-B
Fri 01:19:40 PM 39.7630 -76.2820 231° Southwest 365 420 40,000  Level FlightAware ADS-B
Fri 01:20:50 PM 39.6900 -76.3970 231° Southwest 356 410 40,000  Level FlightAware ADS-B
Fri 01:21:50 PM 39.6270 -76.4980 231° Southwest 360 414 40,000  Level FlightAware ADS-B
Fri 01:22:25 PM 39.5890 -76.5560 230° Southwest 357 411 40,000  Level FlightAware ADS-B
Fri 01:23:05 PM 39.5470 -76.6240 231° Southwest 359 413 40,000  Level FlightAware ADS-B
Fri 01:23:40 PM 39.5100 -76.6820 230° Southwest 358 412 40,000  Level FlightAware ADS-B
Fri 01:24:25 PM 39.4620 -76.7560 230° Southwest 368 423 40,000  Level FlightAware ADS-B
Fri 01:24:55 PM 39.4330 -76.8020 231° Southwest 356 410 40,000  Level FlightAware ADS-B
Fri 01:25:30 PM 39.3960 -76.8610 231° Southwest 357 411 40,000  Level FlightAware ADS-B
Fri 01:26:10 PM 39.3530 -76.9280 230° Southwest 351 404 40,000  Level FlightAware ADS-B
Fri 01:26:55 PM 39.3070 -76.9990 230° Southwest 360 414 40,000  Level FlightAware ADS-B
Fri 01:27:30 PM 39.2680 -77.0590 230° Southwest 367 422 40,000  Level FlightAware ADS-B
Fri 01:27:55 PM 39.2450 -77.0940 230° Southwest 359 413 40,000  Level FlightAware ADS-B
Fri 01:28:45 PM 39.1860 -77.1840 230° Southwest 365 420 40,000  Level FlightAware ADS-B
Fri 01:29:25 PM 39.1420 -77.2510 230° Southwest 368 423 40,000  Level FlightAware ADS-B
Fri 01:29:55 PM 39.1090 -77.3020 230° Southwest 370 426 40,000  Level FlightAware ADS-B
Fri 01:30:35 PM 39.0680 -77.3630 229° Southwest 373 429 40,000  Level FlightAware ADS-B
Fri 01:31:21 PM 39.0140 -77.4480 231° Southwest 381 438 40,000  Level FlightAware ADS-B
Fri 01:32:16 PM 38.9600 -77.5300 230° Southwest 375 432 40,000  Level FlightAware ADS-B
Fri 01:32:52 PM 38.9260 -77.5830 231° Southwest 375 432 40,000  Level FlightAware ADS-B
Fri 01:33:21 PM 38.8800 -77.6520 229° Southwest 359 413 40,000  Level FlightAware ADS-B
Fri 01:34:00 PM 38.8350 -77.7200 230° Southwest 381 438 40,000  Level FlightAware ADS-B
Fri 01:34:21 PM 38.8120 -77.7570 231° Southwest 371 427 40,000  Level FlightAware ADS-B
Fri 01:35:05 PM 38.7630 -77.8290 229° Southwest 365 420 40,000  Level FlightAware ADS-B
Fri 01:35:35 PM 38.7330 -77.8740 229° Southwest 361 415 40,000  Level FlightAware ADS-B
Fri 01:36:05 PM 38.6960 -77.9290 229° Southwest 374 430 40,000  Level FlightAware ADS-B
Fri 01:36:51 PM 38.6510 -77.9980 230° Southwest 366 421 40,000  Level FlightAware ADS-B
Fri 01:37:25 PM 38.6080 -78.0630 230° Southwest 363 418 40,000  Level FlightAware ADS-B
Fri 01:38:30 PM 38.5400 -78.1650 230° Southwest 355 409 40,000  Level FlightAware ADS-B
Fri 01:39:03 PM 38.5110 -78.2100 231° Southwest 351 404 40,000  Level FlightAware ADS-B
Fri 01:40:02 PM 38.4600 -78.2910 231° Southwest 351 404 40,000  Level FlightAware ADS-B
Fri 01:40:25 PM 38.4210 -78.3470 228° Southwest 361 415 40,000  Level FlightAware ADS-B
Fri 01:41:03 PM 38.3860 -78.4000 230° Southwest 361 415 40,000  Level FlightAware ADS-B
Fri 01:42:01 PM 38.3330 -78.4800 230° Southwest 361 415 40,000  Level FlightAware ADS-B
Fri 01:42:49 PM 38.2890 -78.5470 230° Southwest 361 415 40,000  Level FlightAware ADS-B
Fri 01:43:13 PM 38.2670 -78.5800 230° Southwest 361 415 40,000  Level FlightAware ADS-B
Fri 01:43:51 PM 38.2330 -78.6330 231° Southwest 361 415 40,000  Level FlightAware ADS-B
Fri 01:44:51 PM 38.1780 -78.7160 230° Southwest 361 415 40,000  Level FlightAware ADS-B
Fri 01:45:39 PM 38.1340 -78.7820 230° Southwest 361 415 40,000  Level FlightAware ADS-B
Fri 01:46:16 PM 38.1000 -78.8330 230° Southwest 361 415 40,000  Level FlightAware ADS-B
Fri 01:47:14 PM 38.0470 -78.9130 230° Southwest 361 415 40,000  Level FlightAware ADS-B
Fri 01:47:38 PM 38.0260 -78.9460 231° Southwest 361 415 40,000  Level FlightAware ADS-B
Fri 01:48:16 PM 37.9910 -78.9990 230° Southwest 361 415 40,000  Level FlightAware ADS-B
Fri 01:48:52 PM 37.9580 -79.0480 230° Southwest 361 415 40,000  Level FlightAware ADS-B
Fri 01:49:28 PM 37.9250 -79.0980 230° Southwest 361 415 40,000  Level FlightAware ADS-B
Fri 01:50:05 PM 37.8910 -79.1490 230° Southwest 361 415 40,000  Level FlightAware ADS-B
Fri 01:50:17 PM 37.8800 -79.1660 231° Southwest 361 415 40,000  Level FlightAware ADS-B
Fri 01:51:05 PM 37.7242 -79.4250 231° Southwest 367 422 40,000  Level Washington Center
Fri 01:52:06 PM 37.6628 -79.5139 229° Southwest 375 432 40,000  Level Washington Center
Fri 01:53:04 PM 37.5883 -79.6200 228° Southwest 375 432 40,000  Level Washington Center
Fri 01:54:05 PM 37.5292 -79.7058 229° Southwest 375 432 40,000  Level Washington Center
Fri 01:55:05 PM 37.4564 -79.8172 231° Southwest 375 432 40,000  Level Washington Center
Fri 01:56:06 PM 37.3900 -79.9206 231° Southwest 390 449 40,000  Level Washington Center
Fri 01:58:25 PM 37.2292 -80.1525 229° Southwest 368 423 40,000  Level Atlanta Center
Fri 01:59:25 PM 37.1614 -80.2522 230° Southwest 374 430 40,000  Level Atlanta Center
Fri 02:00:25 PM 37.0994 -80.3436 230° Southwest 374 430 40,000  Level Atlanta Center
Fri 02:01:25 PM 37.0317 -80.4431 230° Southwest 374 430 40,000  Level Atlanta Center
Fri 02:02:25 PM 36.9636 -80.5422 229° Southwest 374 430 40,000  Level Atlanta Center
Fri 02:03:25 PM 36.8933 -80.6414 228° Southwest 374 430 40,000  Level Atlanta Center
Fri 02:04:25 PM 36.8192 -80.7483 229° Southwest 374 430 40,000  Level Atlanta Center
Fri 02:05:25 PM 36.7531 -80.8469 230° Southwest 374 430 40,000  Level Atlanta Center
Fri 02:06:25 PM 36.6844 -80.9453 229° Southwest 374 430 40,000  Level Atlanta Center
Fri 02:07:25 PM 36.6181 -81.0436 230° Southwest 374 430 40,000  Level Atlanta Center
Fri 02:08:25 PM 36.5578 -81.1286 229° Southwest 368 423 40,000  Level Atlanta Center
Fri 02:09:25 PM 36.4850 -81.2344 229° Southwest 368 423 40,000  Level Atlanta Center
Fri 02:10:25 PM 36.4164 -81.3297 228° Southwest 368 423 40,000  Level Atlanta Center
Fri 02:11:25 PM 36.3475 -81.4275 229° Southwest 368 423 40,000  Level Atlanta Center
Fri 02:12:25 PM 36.2808 -81.5250 230° Southwest 373 429 40,000  Level Atlanta Center
Fri 02:13:25 PM 36.2097 -81.6225 228° Southwest 373 429 40,000  Level Atlanta Center
Fri 02:14:25 PM 36.1406 -81.7222 229° Southwest 373 429 40,000  Level Atlanta Center
Fri 02:15:25 PM 36.0717 -81.8192 229° Southwest 373 429 40,000 -450 Level Atlanta Center
Fri 02:16:25 PM 35.9983 -81.9186 228° Southwest 373 429 39,100 -1,050 Descending Atlanta Center
Fri 02:17:25 PM 35.9331 -82.0128 229° Southwest 373 429 37,900 -1,150 Descending Atlanta Center
Fri 02:18:25 PM 35.8636 -82.1094 228° Southwest 373 429 36,800 -1,150 Descending Atlanta Center
Fri 02:19:25 PM 35.7944 -82.2083 229° Southwest 378 435 35,600 -900 Descending Atlanta Center
Fri 02:20:25 PM 35.7247 -82.3019 227° Southwest 378 435 35,000 -300 Descending Atlanta Center
Fri 02:21:25 PM 35.6531 -82.4006 228° Southwest 378 435 35,000  Level Atlanta Center
Fri 02:22:25 PM 35.5814 -82.4989 228° Southwest 388 447 35,000 -350 Level Atlanta Center
Fri 02:23:25 PM 35.5075 -82.6000 228° Southwest 393 452 34,300 -1,100 Descending Atlanta Center
Fri 02:24:25 PM 35.4397 -82.6978 230° Southwest 393 452 32,800 -1,500 Descending Atlanta Center
Fri 02:25:25 PM 35.3697 -82.7933 228° Southwest 386 444 31,300 -1,450 Descending Atlanta Center
Fri 02:26:25 PM 35.2956 -82.8936 228° Southwest 391 450 29,900 -1,400 Descending Atlanta Center
Fri 02:27:25 PM 35.2275 -82.9861 228° Southwest 399 459 28,500 -1,500 Descending Atlanta Center
Fri 02:28:25 PM 35.1472 -83.0989 229° Southwest 399 459 26,900 -1,550 Descending Atlanta Center
Fri 02:29:25 PM 35.0686 -83.2014 227° Southwest 405 466 25,400 -1,550 Descending Atlanta Center
Fri 02:30:25 PM 34.9922 -83.3061 228° Southwest 410 472 23,800 -1,800 Descending Atlanta Center
Fri 02:31:25 PM 34.9175 -83.4056 228° Southwest 417 480 21,800 -2,000 Descending Atlanta Center
Fri 02:32:25 PM 34.8408 -83.5047 227° Southwest 409 471 19,800 -2,000 Descending Atlanta Center
Fri 02:33:25 PM 34.7681 -83.6039 228° Southwest 396 456 17,800 -1,600 Descending Atlanta Center
Fri 02:34:25 PM 34.7036 -83.6875 227° Southwest 389 448 16,600 -1,500 Descending Atlanta Center
Fri 02:35:25 PM 34.6289 -83.7864 227° Southwest 389 448 14,800 -1,850 Descending Atlanta Center
Fri 02:36:25 PM 34.5622 -83.8772 228° Southwest 381 438 12,900 -1,850 Descending Atlanta Center
Fri 02:37:25 PM 34.4933 -83.9683 227° Southwest 368 423 11,100 -1,500 Descending Atlanta Center
Fri 02:38:25 PM 34.4142 -84.0211 209° Southwest 345 397 9,900 -1,350 Descending Atlanta Center
Fri 02:39:25 PM 34.3369 -84.0614 203° Southwest 308 354 8,400 -950 Descending Atlanta Center
Fri 02:40:25 PM 34.2597 -84.1017 203° Southwest 303 349 8,000 -950 Descending Atlanta Center
Fri 02:41:25 PM 34.1950 -84.1669 220° Southwest 288 331 6,500 -1,000 Descending Atlanta Center
Fri 02:42:25 PM 34.1386 -84.2294 223° Southwest 283 326 6,000 -316 Descending Atlanta Center
Fri 02:43:00 PM 34.1000 -84.2667 219° Southwest 279 321 6,000 -695 Level Atlanta TRACON
Fri 02:44:00 PM 34.0500 -84.3333 228° Southwest 281 323 4,900 -1,000 Descending Atlanta TRACON
Fri 02:45:00 PM 34.0000 -84.4000 228° Southwest 257 296 4,000 -700 Descending Atlanta TRACON
Fri 02:46:00 PM 33.9500 -84.4333 209° Southwest 230 265 3,500 -500 Descending Atlanta TRACON
Fri 02:47:00 PM 33.8833 -84.4500 192° South 226 260 3,000 -550 Descending Atlanta TRACON
Fri 02:48:00 PM 33.8333 -84.4667 195° South 185 213 2,400 -700 Descending Atlanta TRACON
Fri 02:49:00 PM 33.7833 -84.4667 180° South 147 169 1,600 -800 Descending Atlanta TRACON
Fri 02:50:00 PM 33.7667 -84.5167 220° Southwest  Level FlightAware Approximate
Fri 02:57:00 PM 33.7791 -84.5214 220° Southwest  Level Estimated
Fri 02:58:00 PM 33.7791 -84.5214 220° Southwest  Level Estimated

Login

Don't have an account? Register now (free) for customized features, flight alerts, and more!